»·PEaware :: WAT306 KSLC-KJAC

WAT306 :: KSLC-KJAC

FLIGHT INFORMATION

Flight Status: Arrived
Operator:
Walker Air Transport
More flights by this operator :: More flights under this callsign
Pilot: Ethan S. (29221)
Aircraft: DASSAULT AVIATION FALCON 50
(FA50)
More flights by this aircraft type
Origin: KSLC Salt Lake City Intl
United States
Destination: KJAC Jackson Hole
United States
More flights between these airports :: More routes between these airports
Route: RUGGD1 HOLTR LEIDY DNW
File this flight plan on PilotEdge
Remarks:
Altitude:
(Current/Filed)
27,000ft
Speed:
(Current/Filed)
480kts
Departed: 22-Feb-21 03:12 PM
Arrived: 22-Feb-21 03:52 PM
Distance/Time
Traveled:
177nm/0:40
Distance/Time
To Go:
Arrived

Flight Plot

Page will automatically refresh every two minutes.

Flight plan parsing failed; only flown route is shown


Map Options




Map Legend


Flown Route
Filed Route
Departure Airport
Arrival Airport
Navaid (VOR, NDB)
Fix

Horizontal Profiles

Position Reports

Time Latitude Longitude Heading Altitude Ground
Speed
22-Feb-21 14:52 40.774966 -111.959859 359 4226ft 0kts
22-Feb-21 14:53 40.774966 -111.959859 359 4226ft 0kts
22-Feb-21 14:54 40.774966 -111.959859 359 4226ft 0kts
22-Feb-21 14:55 40.774966 -111.959859 359 4226ft 0kts
22-Feb-21 14:56 40.774966 -111.959859 359 4226ft 0kts
22-Feb-21 14:57 40.774966 -111.959859 359 4226ft 0kts
22-Feb-21 14:58 40.774966 -111.959859 359 4226ft 0kts
22-Feb-21 14:59 40.774966 -111.959859 359 4226ft 0kts
22-Feb-21 15:00 40.774966 -111.959859 359 4226ft 0kts
22-Feb-21 15:01 40.774966 -111.959859 359 4226ft 0kts
22-Feb-21 15:02 40.774966 -111.959859 359 4226ft 0kts
22-Feb-21 15:03 40.774966 -111.959859 359 4226ft 0kts
22-Feb-21 15:04 40.775068 -111.959862 351 4226ft 4kts
22-Feb-21 15:05 40.778192 -111.960583 16 4226ft 15kts
22-Feb-21 15:06 40.782830 -111.960017 359 4224ft 24kts
22-Feb-21 15:07 40.788445 -111.960018 0 4223ft 19kts
22-Feb-21 15:08 40.794029 -111.960017 359 4221ft 20kts
22-Feb-21 15:09 40.798949 -111.960025 359 4223ft 8kts
22-Feb-21 15:10 40.799386 -111.960618 268 4223ft 5kts
22-Feb-21 15:11 40.789991 -111.962065 179 4229ft 136kts
22-Feb-21 15:12 40.754463 -111.997012 284 7096ft 242kts
22-Feb-21 15:13 40.793619 -112.072162 306 11421ft 257kts
22-Feb-21 15:14 40.848315 -112.129095 6 14689ft 286kts
22-Feb-21 15:15 40.929880 -112.084761 21 16487ft 345kts
22-Feb-21 15:16 41.022320 -112.031235 21 18212ft 381kts
22-Feb-21 15:17 41.090949 -111.915246 37 21072ft 415kts
22-Feb-21 15:18 41.196111 -111.863372 8 23657ft 413kts
22-Feb-21 15:19 41.307905 -111.820414 8 25868ft 428kts
22-Feb-21 15:20 41.422594 -111.776381 8 27428ft 449kts
22-Feb-21 15:21 41.548131 -111.727929 8 27421ft 487kts
22-Feb-21 15:22 41.677545 -111.677545 8 27413ft 482kts
22-Feb-21 15:23 41.805334 -111.627784 8 27414ft 479kts
22-Feb-21 15:24 41.932622 -111.578024 8 27414ft 478kts
22-Feb-21 15:25 42.060013 -111.527996 8 27412ft 474kts
22-Feb-21 15:26 42.185191 -111.478638 8 27404ft 468kts
22-Feb-21 15:27 42.308606 -111.422252 17 27379ft 474kts
22-Feb-21 15:28 42.424062 -111.332699 24 27352ft 478kts
22-Feb-21 15:29 42.544417 -111.234170 24 25655ft 457kts
22-Feb-21 15:30 42.648869 -111.148445 23 24342ft 416kts
22-Feb-21 15:31 42.746051 -111.068776 23 23337ft 400kts
22-Feb-21 15:32 42.835870 -110.994508 22 23350ft 360kts
22-Feb-21 15:33 42.919070 -110.925797 21 23350ft 341kts
22-Feb-21 15:34 43.003370 -110.856303 21 23358ft 365kts
22-Feb-21 15:35 43.092633 -110.782016 21 23341ft 385kts
22-Feb-21 15:36 43.187287 -110.708708 13 22933ft 393kts
22-Feb-21 15:37 43.287012 -110.651201 14 21455ft 378kts
22-Feb-21 15:38 43.380956 -110.596846 14 19968ft 357kts
22-Feb-21 15:39 43.471668 -110.544195 15 18472ft 345kts
22-Feb-21 15:40 43.563066 -110.490950 16 16923ft 337kts
22-Feb-21 15:41 43.652447 -110.438687 17 15376ft 330kts
22-Feb-21 15:42 43.741975 -110.386142 18 13975ft 313kts
22-Feb-21 15:43 43.811220 -110.397305 303 13811ft 219kts
22-Feb-21 15:44 43.818139 -110.480721 263 12235ft 221kts
22-Feb-21 15:45 43.801977 -110.567778 244 10993ft 226kts
22-Feb-21 15:46 43.765320 -110.640670 219 9685ft 218kts
22-Feb-21 15:47 43.712305 -110.686467 200 8622ft 199kts
22-Feb-21 15:48 43.662781 -110.710655 199 7463ft 119kts
22-Feb-21 15:49 43.634114 -110.724677 198 6887ft 112kts
22-Feb-21 15:50 43.606206 -110.738321 198 6430ft 66kts
22-Feb-21 15:51 43.599054 -110.740264 158 6415ft 8kts
22-Feb-21 15:52 43.599062 -110.738945 18 6418ft 0kts
22-Feb-21 15:53 43.599062 -110.738945 18 6418ft 0kts
22-Feb-21 15:54 43.599062 -110.738945 18 6418ft 0kts
22-Feb-21 15:55 43.599062 -110.738945 18 6418ft 0kts
22-Feb-21 15:56 43.599062 -110.738945 18 6418ft 0kts

Navigation Log

Ident Type
Flight plan parsing failed, navigation log unavailable